Bowling Green, South Carolina
Current Conditions -  °F | °C
As of 1:54 PM on Thursday 23 Oct 2014 (Local Time) from KAKH Reporting Station
Clear Clear  
Wind Chill: 20°   Ceiling: Unl
Heat Index: 20°   Visibility: 10mi
Dew Point:   Wind: 5mph
Humidity: 33%   Direction: NA
Pressure: 30.03"   Gusts: NA
Location:  35.15°N, 81.21°W
Report Text: KAKH 231754Z AUTO VRB04KT 10SM CLR 20/03 A3003 RMK AO2 SLP167 T02000033 10200 20072 58021
Loading
Personal Weather Stations






























Interactive Weather Map
Tropical Storm Tracking
New forecast layout! Learn more

10-Day Weather Forecast

Advertisements
Track Severe Weather on mobile